sensor_id;sensor_type;location;lat;lon;timestamp;P1;durP1;ratioP1;P2;durP2;ratioP2
1479;SDS011;732;51.698;4.886;2024-03-08T00:01:08;69.60;;;32.63;;
1479;SDS011;732;51.698;4.886;2024-03-08T00:03:38;84.97;;;34.70;;
1479;SDS011;732;51.698;4.886;2024-03-08T00:06:07;58.50;;;30.93;;
1479;SDS011;732;51.698;4.886;2024-03-08T00:08:36;70.50;;;32.60;;
1479;SDS011;732;51.698;4.886;2024-03-08T00:11:05;65.60;;;33.40;;
1479;SDS011;732;51.698;4.886;2024-03-08T00:13:34;68.17;;;31.77;;
1479;SDS011;732;51.698;4.886;2024-03-08T00:16:04;68.70;;;32.47;;
1479;SDS011;732;51.698;4.886;2024-03-08T00:18:34;75.27;;;35.50;;
1479;SDS011;732;51.698;4.886;2024-03-08T00:21:04;66.20;;;33.20;;
1479;SDS011;732;51.698;4.886;2024-03-08T00:23:35;69.27;;;32.27;;
1479;SDS011;732;51.698;4.886;2024-03-08T00:26:04;68.90;;;34.30;;
1479;SDS011;732;51.698;4.886;2024-03-08T00:28:33;73.13;;;33.50;;
1479;SDS011;732;51.698;4.886;2024-03-08T00:31:02;71.73;;;33.00;;
1479;SDS011;732;51.698;4.886;2024-03-08T00:33:31;65.20;;;33.10;;
1479;SDS011;732;51.698;4.886;2024-03-08T00:36:00;76.00;;;34.47;;
1479;SDS011;732;51.698;4.886;2024-03-08T00:38:30;69.43;;;34.40;;
1479;SDS011;732;51.698;4.886;2024-03-08T00:41:00;71.97;;;33.80;;
1479;SDS011;732;51.698;4.886;2024-03-08T00:43:29;66.63;;;31.90;;
1479;SDS011;732;51.698;4.886;2024-03-08T00:45:58;71.83;;;34.00;;
1479;SDS011;732;51.698;4.886;2024-03-08T00:48:27;70.90;;;33.40;;
1479;SDS011;732;51.698;4.886;2024-03-08T00:50:57;67.23;;;32.80;;
1479;SDS011;732;51.698;4.886;2024-03-08T00:53:26;61.93;;;31.50;;
1479;SDS011;732;51.698;4.886;2024-03-08T00:55:56;72.60;;;34.00;;
1479;SDS011;732;51.698;4.886;2024-03-08T00:58:25;71.70;;;34.93;;
1479;SDS011;732;51.698;4.886;2024-03-08T01:00:54;65.23;;;33.13;;
1479;SDS011;732;51.698;4.886;2024-03-08T01:03:24;67.43;;;32.73;;
1479;SDS011;732;51.698;4.886;2024-03-08T01:05:53;67.23;;;34.60;;
1479;SDS011;732;51.698;4.886;2024-03-08T01:08:21;68.57;;;33.03;;
1479;SDS011;732;51.698;4.886;2024-03-08T01:10:50;69.93;;;33.03;;
1479;SDS011;732;51.698;4.886;2024-03-08T01:13:20;71.87;;;31.70;;
1479;SDS011;732;51.698;4.886;2024-03-08T01:15:52;73.00;;;32.77;;
1479;SDS011;732;51.698;4.886;2024-03-08T01:18:21;72.77;;;32.53;;
1479;SDS011;732;51.698;4.886;2024-03-08T01:20:49;66.93;;;32.10;;
1479;SDS011;732;51.698;4.886;2024-03-08T01:23:18;60.53;;;32.43;;
1479;SDS011;732;51.698;4.886;2024-03-08T01:25:46;69.90;;;33.30;;
1479;SDS011;732;51.698;4.886;2024-03-08T01:28:25;67.90;;;33.77;;
1479;SDS011;732;51.698;4.886;2024-03-08T01:30:54;60.90;;;31.47;;
1479;SDS011;732;51.698;4.886;2024-03-08T01:33:23;62.57;;;33.50;;
1479;SDS011;732;51.698;4.886;2024-03-08T01:35:52;74.00;;;34.00;;
1479;SDS011;732;51.698;4.886;2024-03-08T01:38:21;76.67;;;32.63;;
1479;SDS011;732;51.698;4.886;2024-03-08T01:40:50;65.43;;;32.43;;
1479;SDS011;732;51.698;4.886;2024-03-08T01:43:19;66.33;;;33.23;;
1479;SDS011;732;51.698;4.886;2024-03-08T01:45:50;62.97;;;32.93;;
1479;SDS011;732;51.698;4.886;2024-03-08T01:48:20;71.00;;;33.50;;
1479;SDS011;732;51.698;4.886;2024-03-08T01:50:51;57.30;;;30.87;;
1479;SDS011;732;51.698;4.886;2024-03-08T01:53:21;70.47;;;31.83;;
1479;SDS011;732;51.698;4.886;2024-03-08T01:55:52;61.80;;;30.10;;
1479;SDS011;732;51.698;4.886;2024-03-08T01:58:24;65.03;;;32.50;;
1479;SDS011;732;51.698;4.886;2024-03-08T02:00:57;63.67;;;31.67;;
1479;SDS011;732;51.698;4.886;2024-03-08T02:03:26;61.40;;;31.47;;
1479;SDS011;732;51.698;4.886;2024-03-08T02:05:55;66.77;;;32.73;;
1479;SDS011;732;51.698;4.886;2024-03-08T02:08:25;64.27;;;33.13;;
1479;SDS011;732;51.698;4.886;2024-03-08T02:10:54;64.70;;;33.23;;
1479;SDS011;732;51.698;4.886;2024-03-08T02:13:23;71.20;;;34.13;;
1479;SDS011;732;51.698;4.886;2024-03-08T02:15:52;61.87;;;32.30;;
1479;SDS011;732;51.698;4.886;2024-03-08T02:18:23;66.73;;;33.77;;
1479;SDS011;732;51.698;4.886;2024-03-08T02:20:54;63.97;;;33.03;;
1479;SDS011;732;51.698;4.886;2024-03-08T02:23:23;63.73;;;31.67;;
1479;SDS011;732;51.698;4.886;2024-03-08T02:25:54;59.90;;;32.33;;
1479;SDS011;732;51.698;4.886;2024-03-08T02:28:24;65.23;;;31.93;;
1479;SDS011;732;51.698;4.886;2024-03-08T02:30:52;67.37;;;33.80;;
1479;SDS011;732;51.698;4.886;2024-03-08T02:33:24;60.27;;;31.20;;
1479;SDS011;732;51.698;4.886;2024-03-08T02:35:56;71.40;;;34.70;;
1479;SDS011;732;51.698;4.886;2024-03-08T02:38:24;64.57;;;34.63;;
1479;SDS011;732;51.698;4.886;2024-03-08T02:40:55;66.13;;;33.10;;
1479;SDS011;732;51.698;4.886;2024-03-08T02:43:23;62.50;;;32.70;;
1479;SDS011;732;51.698;4.886;2024-03-08T02:45:52;64.67;;;31.27;;
1479;SDS011;732;51.698;4.886;2024-03-08T02:48:20;61.83;;;33.03;;
1479;SDS011;732;51.698;4.886;2024-03-08T02:50:50;63.80;;;32.80;;
1479;SDS011;732;51.698;4.886;2024-03-08T02:53:21;59.40;;;30.53;;
1479;SDS011;732;51.698;4.886;2024-03-08T02:55:51;67.20;;;34.30;;
1479;SDS011;732;51.698;4.886;2024-03-08T02:58:21;59.77;;;31.73;;
1479;SDS011;732;51.698;4.886;2024-03-08T03:00:50;62.10;;;34.30;;
1479;SDS011;732;51.698;4.886;2024-03-08T03:03:19;60.67;;;31.27;;
1479;SDS011;732;51.698;4.886;2024-03-08T03:05:48;67.70;;;35.27;;
1479;SDS011;732;51.698;4.886;2024-03-08T03:08:16;63.33;;;33.03;;
1479;SDS011;732;51.698;4.886;2024-03-08T03:10:47;68.33;;;35.73;;
1479;SDS011;732;51.698;4.886;2024-03-08T03:13:16;66.17;;;32.10;;
1479;SDS011;732;51.698;4.886;2024-03-08T03:15:46;67.50;;;34.50;;
1479;SDS011;732;51.698;4.886;2024-03-08T03:18:14;68.50;;;33.03;;
1479;SDS011;732;51.698;4.886;2024-03-08T03:20:44;60.50;;;32.57;;
1479;SDS011;732;51.698;4.886;2024-03-08T03:23:13;65.20;;;34.33;;
1479;SDS011;732;51.698;4.886;2024-03-08T03:25:48;64.03;;;32.57;;
1479;SDS011;732;51.698;4.886;2024-03-08T03:28:18;58.90;;;31.93;;
1479;SDS011;732;51.698;4.886;2024-03-08T03:30:50;65.57;;;33.80;;
1479;SDS011;732;51.698;4.886;2024-03-08T03:33:19;68.97;;;34.20;;
1479;SDS011;732;51.698;4.886;2024-03-08T03:35:49;63.10;;;32.97;;
1479;SDS011;732;51.698;4.886;2024-03-08T03:38:20;67.10;;;33.90;;
1479;SDS011;732;51.698;4.886;2024-03-08T03:40:51;65.10;;;33.40;;
1479;SDS011;732;51.698;4.886;2024-03-08T03:43:23;66.70;;;36.13;;
1479;SDS011;732;51.698;4.886;2024-03-08T03:45:52;66.30;;;34.50;;
1479;SDS011;732;51.698;4.886;2024-03-08T03:48:22;64.53;;;33.03;;
1479;SDS011;732;51.698;4.886;2024-03-08T03:50:51;64.63;;;34.13;;
1479;SDS011;732;51.698;4.886;2024-03-08T03:53:19;61.70;;;33.37;;
1479;SDS011;732;51.698;4.886;2024-03-08T03:55:48;57.67;;;31.97;;
1479;SDS011;732;51.698;4.886;2024-03-08T03:58:18;62.20;;;34.30;;
1479;SDS011;732;51.698;4.886;2024-03-08T04:00:48;71.00;;;33.20;;
1479;SDS011;732;51.698;4.886;2024-03-08T04:03:17;64.00;;;34.07;;
1479;SDS011;732;51.698;4.886;2024-03-08T04:05:46;68.43;;;35.33;;
1479;SDS011;732;51.698;4.886;2024-03-08T04:08:15;70.00;;;34.80;;
1479;SDS011;732;51.698;4.886;2024-03-08T04:10:44;65.10;;;33.53;;
1479;SDS011;732;51.698;4.886;2024-03-08T04:13:12;64.23;;;34.17;;
1479;SDS011;732;51.698;4.886;2024-03-08T04:15:43;68.23;;;35.00;;
1479;SDS011;732;51.698;4.886;2024-03-08T04:18:15;64.57;;;33.77;;
1479;SDS011;732;51.698;4.886;2024-03-08T04:20:45;70.80;;;37.33;;
1479;SDS011;732;51.698;4.886;2024-03-08T04:23:13;62.20;;;34.90;;
1479;SDS011;732;51.698;4.886;2024-03-08T04:25:42;64.43;;;33.67;;
1479;SDS011;732;51.698;4.886;2024-03-08T04:28:11;59.37;;;34.43;;
1479;SDS011;732;51.698;4.886;2024-03-08T04:30:40;69.00;;;34.03;;
1479;SDS011;732;51.698;4.886;2024-03-08T04:33:11;63.63;;;35.43;;
1479;SDS011;732;51.698;4.886;2024-03-08T04:35:41;62.40;;;34.63;;
1479;SDS011;732;51.698;4.886;2024-03-08T04:38:12;69.70;;;37.03;;
1479;SDS011;732;51.698;4.886;2024-03-08T04:40:42;70.23;;;36.37;;
1479;SDS011;732;51.698;4.886;2024-03-08T04:43:10;63.90;;;35.13;;
1479;SDS011;732;51.698;4.886;2024-03-08T04:45:40;75.73;;;38.27;;
1479;SDS011;732;51.698;4.886;2024-03-08T04:48:12;67.87;;;34.73;;
1479;SDS011;732;51.698;4.886;2024-03-08T04:50:40;66.17;;;35.90;;
1479;SDS011;732;51.698;4.886;2024-03-08T04:53:09;70.37;;;36.27;;
1479;SDS011;732;51.698;4.886;2024-03-08T04:55:38;75.17;;;37.57;;
1479;SDS011;732;51.698;4.886;2024-03-08T04:58:06;68.20;;;35.60;;
1479;SDS011;732;51.698;4.886;2024-03-08T05:00:35;64.43;;;34.83;;
1479;SDS011;732;51.698;4.886;2024-03-08T05:03:04;71.00;;;35.90;;
1479;SDS011;732;51.698;4.886;2024-03-08T05:05:34;65.27;;;34.97;;
1479;SDS011;732;51.698;4.886;2024-03-08T05:08:03;70.10;;;34.43;;
1479;SDS011;732;51.698;4.886;2024-03-08T05:10:33;70.20;;;35.53;;
1479;SDS011;732;51.698;4.886;2024-03-08T05:13:04;69.30;;;34.97;;
1479;SDS011;732;51.698;4.886;2024-03-08T05:15:33;70.70;;;34.90;;
1479;SDS011;732;51.698;4.886;2024-03-08T05:18:01;72.13;;;36.00;;
1479;SDS011;732;51.698;4.886;2024-03-08T05:20:31;70.33;;;35.70;;
1479;SDS011;732;51.698;4.886;2024-03-08T05:23:01;69.57;;;37.53;;
1479;SDS011;732;51.698;4.886;2024-03-08T05:25:30;66.80;;;34.67;;
1479;SDS011;732;51.698;4.886;2024-03-08T05:27:58;67.90;;;35.07;;
1479;SDS011;732;51.698;4.886;2024-03-08T05:30:27;69.77;;;34.03;;
1479;SDS011;732;51.698;4.886;2024-03-08T05:32:56;65.50;;;34.40;;
1479;SDS011;732;51.698;4.886;2024-03-08T05:35:24;68.50;;;37.20;;
1479;SDS011;732;51.698;4.886;2024-03-08T05:37:53;68.80;;;36.33;;
1479;SDS011;732;51.698;4.886;2024-03-08T05:40:23;71.90;;;37.20;;
1479;SDS011;732;51.698;4.886;2024-03-08T05:42:52;67.90;;;35.37;;
1479;SDS011;732;51.698;4.886;2024-03-08T05:45:20;66.10;;;35.87;;
1479;SDS011;732;51.698;4.886;2024-03-08T05:47:51;73.40;;;36.60;;
1479;SDS011;732;51.698;4.886;2024-03-08T05:50:22;73.03;;;37.10;;
1479;SDS011;732;51.698;4.886;2024-03-08T05:52:51;70.73;;;36.37;;
1479;SDS011;732;51.698;4.886;2024-03-08T05:55:20;72.00;;;37.73;;
1479;SDS011;732;51.698;4.886;2024-03-08T05:57:51;66.57;;;36.60;;
1479;SDS011;732;51.698;4.886;2024-03-08T06:00:20;75.13;;;39.07;;
1479;SDS011;732;51.698;4.886;2024-03-08T06:02:49;71.73;;;37.17;;
1479;SDS011;732;51.698;4.886;2024-03-08T06:05:18;71.63;;;34.10;;
1479;SDS011;732;51.698;4.886;2024-03-08T06:07:50;70.87;;;36.50;;
1479;SDS011;732;51.698;4.886;2024-03-08T06:10:20;68.37;;;36.37;;
1479;SDS011;732;51.698;4.886;2024-03-08T06:12:50;66.90;;;36.77;;
1479;SDS011;732;51.698;4.886;2024-03-08T06:15:19;70.43;;;35.97;;
1479;SDS011;732;51.698;4.886;2024-03-08T06:17:48;68.73;;;36.43;;
1479;SDS011;732;51.698;4.886;2024-03-08T06:20:16;70.70;;;35.47;;
1479;SDS011;732;51.698;4.886;2024-03-08T06:22:45;73.10;;;35.60;;
1479;SDS011;732;51.698;4.886;2024-03-08T06:25:14;71.33;;;36.63;;
1479;SDS011;732;51.698;4.886;2024-03-08T06:27:44;68.87;;;36.80;;
1479;SDS011;732;51.698;4.886;2024-03-08T06:30:13;70.90;;;36.13;;
1479;SDS011;732;51.698;4.886;2024-03-08T06:32:46;69.37;;;34.57;;
1479;SDS011;732;51.698;4.886;2024-03-08T06:35:15;65.70;;;35.73;;
1479;SDS011;732;51.698;4.886;2024-03-08T06:37:44;67.63;;;35.37;;
1479;SDS011;732;51.698;4.886;2024-03-08T06:40:13;62.33;;;35.73;;
1479;SDS011;732;51.698;4.886;2024-03-08T06:42:42;68.80;;;35.63;;
1479;SDS011;732;51.698;4.886;2024-03-08T06:45:13;68.00;;;35.70;;
1479;SDS011;732;51.698;4.886;2024-03-08T06:47:46;65.17;;;34.40;;
1479;SDS011;732;51.698;4.886;2024-03-08T06:50:15;63.47;;;34.90;;
1479;SDS011;732;51.698;4.886;2024-03-08T06:52:43;67.30;;;35.37;;
1479;SDS011;732;51.698;4.886;2024-03-08T06:55:17;73.53;;;35.30;;
1479;SDS011;732;51.698;4.886;2024-03-08T06:57:47;73.03;;;36.67;;
1479;SDS011;732;51.698;4.886;2024-03-08T07:00:16;62.00;;;35.13;;
1479;SDS011;732;51.698;4.886;2024-03-08T07:02:47;64.00;;;34.47;;
1479;SDS011;732;51.698;4.886;2024-03-08T07:05:19;62.57;;;32.97;;
1479;SDS011;732;51.698;4.886;2024-03-08T07:07:47;67.83;;;34.40;;
1479;SDS011;732;51.698;4.886;2024-03-08T07:10:17;60.57;;;33.83;;
1479;SDS011;732;51.698;4.886;2024-03-08T07:12:50;58.23;;;32.90;;
1479;SDS011;732;51.698;4.886;2024-03-08T07:15:19;62.80;;;33.63;;
1479;SDS011;732;51.698;4.886;2024-03-08T07:17:50;65.97;;;33.90;;
1479;SDS011;732;51.698;4.886;2024-03-08T07:20:19;62.53;;;32.53;;
1479;SDS011;732;51.698;4.886;2024-03-08T07:22:48;61.67;;;33.60;;
1479;SDS011;732;51.698;4.886;2024-03-08T07:25:18;59.60;;;33.70;;
1479;SDS011;732;51.698;4.886;2024-03-08T07:27:52;62.87;;;33.10;;
1479;SDS011;732;51.698;4.886;2024-03-08T07:30:24;59.50;;;34.00;;
1479;SDS011;732;51.698;4.886;2024-03-08T07:33:12;56.13;;;32.90;;
1479;SDS011;732;51.698;4.886;2024-03-08T07:35:41;61.20;;;32.90;;
1479;SDS011;732;51.698;4.886;2024-03-08T07:38:11;57.33;;;32.43;;
1479;SDS011;732;51.698;4.886;2024-03-08T07:40:41;57.50;;;33.07;;
1479;SDS011;732;51.698;4.886;2024-03-08T07:43:13;56.00;;;32.00;;
1479;SDS011;732;51.698;4.886;2024-03-08T07:45:43;57.97;;;33.80;;
1479;SDS011;732;51.698;4.886;2024-03-08T07:48:11;55.07;;;32.10;;
1479;SDS011;732;51.698;4.886;2024-03-08T07:50:40;55.30;;;32.90;;
1479;SDS011;732;51.698;4.886;2024-03-08T07:53:09;61.93;;;31.30;;
1479;SDS011;732;51.698;4.886;2024-03-08T07:55:38;60.03;;;32.47;;
1479;SDS011;732;51.698;4.886;2024-03-08T07:58:09;60.57;;;31.83;;
1479;SDS011;732;51.698;4.886;2024-03-08T08:00:41;50.27;;;30.63;;
1479;SDS011;732;51.698;4.886;2024-03-08T08:03:10;55.70;;;32.20;;
1479;SDS011;732;51.698;4.886;2024-03-08T08:05:39;57.13;;;31.07;;
1479;SDS011;732;51.698;4.886;2024-03-08T08:08:08;56.30;;;30.87;;
1479;SDS011;732;51.698;4.886;2024-03-08T08:10:38;59.70;;;32.87;;
1479;SDS011;732;51.698;4.886;2024-03-08T08:13:06;56.87;;;31.80;;
1479;SDS011;732;51.698;4.886;2024-03-08T08:15:35;54.93;;;29.97;;
1479;SDS011;732;51.698;4.886;2024-03-08T08:18:06;53.20;;;29.50;;
1479;SDS011;732;51.698;4.886;2024-03-08T08:20:36;54.80;;;31.23;;
1479;SDS011;732;51.698;4.886;2024-03-08T08:23:05;54.60;;;30.33;;
1479;SDS011;732;51.698;4.886;2024-03-08T08:25:35;53.60;;;32.03;;
1479;SDS011;732;51.698;4.886;2024-03-08T08:28:04;51.30;;;30.53;;
1479;SDS011;732;51.698;4.886;2024-03-08T08:30:33;50.77;;;30.30;;
1479;SDS011;732;51.698;4.886;2024-03-08T08:33:02;52.83;;;31.13;;
1479;SDS011;732;51.698;4.886;2024-03-08T08:35:34;60.27;;;31.50;;
1479;SDS011;732;51.698;4.886;2024-03-08T08:38:02;46.23;;;29.60;;
1479;SDS011;732;51.698;4.886;2024-03-08T08:40:31;47.80;;;29.43;;
1479;SDS011;732;51.698;4.886;2024-03-08T08:43:02;46.00;;;28.80;;
1479;SDS011;732;51.698;4.886;2024-03-08T08:45:31;47.53;;;28.67;;
1479;SDS011;732;51.698;4.886;2024-03-08T08:48:00;44.40;;;28.23;;
1479;SDS011;732;51.698;4.886;2024-03-08T08:50:30;46.60;;;27.87;;
1479;SDS011;732;51.698;4.886;2024-03-08T08:53:00;48.93;;;27.80;;
1479;SDS011;732;51.698;4.886;2024-03-08T08:55:30;45.93;;;27.03;;
1479;SDS011;732;51.698;4.886;2024-03-08T08:58:02;40.30;;;25.00;;
1479;SDS011;732;51.698;4.886;2024-03-08T09:00:32;47.20;;;26.43;;
1479;SDS011;732;51.698;4.886;2024-03-08T09:03:01;42.53;;;28.40;;
1479;SDS011;732;51.698;4.886;2024-03-08T09:05:33;42.93;;;26.93;;
1479;SDS011;732;51.698;4.886;2024-03-08T09:08:06;46.70;;;28.30;;
1479;SDS011;732;51.698;4.886;2024-03-08T09:10:36;41.07;;;26.47;;
1479;SDS011;732;51.698;4.886;2024-03-08T09:13:06;42.57;;;25.93;;
1479;SDS011;732;51.698;4.886;2024-03-08T09:15:44;37.53;;;24.63;;
1479;SDS011;732;51.698;4.886;2024-03-08T09:18:12;41.63;;;27.00;;
1479;SDS011;732;51.698;4.886;2024-03-08T09:20:41;41.10;;;25.67;;
1479;SDS011;732;51.698;4.886;2024-03-08T09:23:11;43.30;;;26.80;;
1479;SDS011;732;51.698;4.886;2024-03-08T09:25:41;38.80;;;25.87;;
1479;SDS011;732;51.698;4.886;2024-03-08T09:28:13;43.70;;;25.47;;
1479;SDS011;732;51.698;4.886;2024-03-08T09:30:43;38.37;;;24.70;;
1479;SDS011;732;51.698;4.886;2024-03-08T09:33:25;37.77;;;24.40;;
1479;SDS011;732;51.698;4.886;2024-03-08T09:35:55;40.37;;;25.00;;
1479;SDS011;732;51.698;4.886;2024-03-08T09:38:30;38.07;;;24.27;;
1479;SDS011;732;51.698;4.886;2024-03-08T09:41:01;39.97;;;25.07;;
1479;SDS011;732;51.698;4.886;2024-03-08T09:43:32;38.70;;;23.73;;
1479;SDS011;732;51.698;4.886;2024-03-08T09:46:01;38.60;;;25.57;;
1479;SDS011;732;51.698;4.886;2024-03-08T09:48:32;38.63;;;25.60;;
1479;SDS011;732;51.698;4.886;2024-03-08T09:51:02;38.53;;;25.03;;
1479;SDS011;732;51.698;4.886;2024-03-08T09:53:34;35.40;;;24.20;;
1479;SDS011;732;51.698;4.886;2024-03-08T09:56:03;36.47;;;24.03;;
1479;SDS011;732;51.698;4.886;2024-03-08T09:58:32;40.87;;;23.90;;
1479;SDS011;732;51.698;4.886;2024-03-08T10:01:20;34.80;;;23.93;;
1479;SDS011;732;51.698;4.886;2024-03-08T10:03:49;38.23;;;24.33;;
1479;SDS011;732;51.698;4.886;2024-03-08T10:06:22;38.23;;;24.10;;
1479;SDS011;732;51.698;4.886;2024-03-08T10:08:53;36.67;;;24.90;;
1479;SDS011;732;51.698;4.886;2024-03-08T10:11:22;36.43;;;24.37;;
1479;SDS011;732;51.698;4.886;2024-03-08T10:13:53;34.87;;;23.33;;
1479;SDS011;732;51.698;4.886;2024-03-08T10:16:23;32.13;;;22.73;;
1479;SDS011;732;51.698;4.886;2024-03-08T10:18:53;34.50;;;23.90;;
1479;SDS011;732;51.698;4.886;2024-03-08T10:21:24;33.07;;;22.53;;
1479;SDS011;732;51.698;4.886;2024-03-08T10:23:54;32.97;;;22.67;;
1479;SDS011;732;51.698;4.886;2024-03-08T10:26:25;33.97;;;21.63;;
1479;SDS011;732;51.698;4.886;2024-03-08T10:28:53;33.63;;;23.67;;
1479;SDS011;732;51.698;4.886;2024-03-08T10:31:24;32.03;;;21.20;;
1479;SDS011;732;51.698;4.886;2024-03-08T10:33:53;32.80;;;22.50;;
1479;SDS011;732;51.698;4.886;2024-03-08T10:36:22;37.90;;;23.03;;
1479;SDS011;732;51.698;4.886;2024-03-08T10:38:51;34.10;;;21.60;;
1479;SDS011;732;51.698;4.886;2024-03-08T10:41:24;29.40;;;20.30;;
1479;SDS011;732;51.698;4.886;2024-03-08T10:44:02;29.53;;;21.20;;
1479;SDS011;732;51.698;4.886;2024-03-08T10:46:47;30.00;;;21.40;;
1479;SDS011;732;51.698;4.886;2024-03-08T10:49:37;29.97;;;21.03;;
1479;SDS011;732;51.698;4.886;2024-03-08T10:52:11;29.07;;;20.60;;
1479;SDS011;732;51.698;4.886;2024-03-08T10:54:41;31.80;;;21.70;;
1479;SDS011;732;51.698;4.886;2024-03-08T10:57:11;31.93;;;21.50;;
1479;SDS011;732;51.698;4.886;2024-03-08T10:59:42;29.63;;;21.40;;
1479;SDS011;732;51.698;4.886;2024-03-08T11:02:11;30.43;;;21.30;;
1479;SDS011;732;51.698;4.886;2024-03-08T11:04:45;31.00;;;22.60;;
1479;SDS011;732;51.698;4.886;2024-03-08T11:07:16;30.00;;;20.83;;
1479;SDS011;732;51.698;4.886;2024-03-08T11:09:48;27.67;;;19.17;;
1479;SDS011;732;51.698;4.886;2024-03-08T11:12:24;23.93;;;17.87;;
1479;SDS011;732;51.698;4.886;2024-03-08T11:14:56;29.60;;;19.97;;
1479;SDS011;732;51.698;4.886;2024-03-08T11:17:40;28.83;;;19.00;;
1479;SDS011;732;51.698;4.886;2024-03-08T11:20:15;28.43;;;18.90;;
1479;SDS011;732;51.698;4.886;2024-03-08T11:22:48;25.20;;;18.80;;
1479;SDS011;732;51.698;4.886;2024-03-08T11:25:34;24.40;;;17.00;;
1479;SDS011;732;51.698;4.886;2024-03-08T11:28:14;26.97;;;18.23;;
1479;SDS011;732;51.698;4.886;2024-03-08T11:30:46;23.43;;;17.90;;
1479;SDS011;732;51.698;4.886;2024-03-08T11:33:39;24.13;;;17.40;;
1479;SDS011;732;51.698;4.886;2024-03-08T11:36:10;23.80;;;17.77;;
1479;SDS011;732;51.698;4.886;2024-03-08T11:38:49;25.10;;;19.00;;
1479;SDS011;732;51.698;4.886;2024-03-08T11:41:21;27.40;;;18.47;;
1479;SDS011;732;51.698;4.886;2024-03-08T11:44:02;23.83;;;17.90;;
1479;SDS011;732;51.698;4.886;2024-03-08T11:46:33;26.10;;;18.10;;
1479;SDS011;732;51.698;4.886;2024-03-08T11:49:02;27.67;;;18.60;;
1479;SDS011;732;51.698;4.886;2024-03-08T11:51:32;27.77;;;17.83;;
1479;SDS011;732;51.698;4.886;2024-03-08T11:54:01;27.50;;;18.70;;
1479;SDS011;732;51.698;4.886;2024-03-08T11:56:32;24.87;;;17.80;;
1479;SDS011;732;51.698;4.886;2024-03-08T11:59:00;24.97;;;17.40;;
1479;SDS011;732;51.698;4.886;2024-03-08T12:01:29;24.33;;;18.37;;
1479;SDS011;732;51.698;4.886;2024-03-08T12:04:00;27.00;;;18.80;;
1479;SDS011;732;51.698;4.886;2024-03-08T12:06:39;26.67;;;18.37;;
1479;SDS011;732;51.698;4.886;2024-03-08T12:09:09;28.03;;;17.60;;
1479;SDS011;732;51.698;4.886;2024-03-08T12:11:41;31.97;;;19.47;;
1479;SDS011;732;51.698;4.886;2024-03-08T12:14:13;23.87;;;18.10;;
1479;SDS011;732;51.698;4.886;2024-03-08T12:16:42;26.57;;;18.10;;
1479;SDS011;732;51.698;4.886;2024-03-08T12:19:11;28.13;;;19.10;;
1479;SDS011;732;51.698;4.886;2024-03-08T12:21:41;26.13;;;18.80;;
1479;SDS011;732;51.698;4.886;2024-03-08T12:24:15;22.73;;;17.53;;
1479;SDS011;732;51.698;4.886;2024-03-08T12:26:47;24.67;;;17.27;;
1479;SDS011;732;51.698;4.886;2024-03-08T12:29:17;23.90;;;17.43;;
1479;SDS011;732;51.698;4.886;2024-03-08T12:31:50;22.70;;;17.00;;
1479;SDS011;732;51.698;4.886;2024-03-08T12:34:21;26.90;;;17.40;;
1479;SDS011;732;51.698;4.886;2024-03-08T12:36:50;23.37;;;16.37;;
1479;SDS011;732;51.698;4.886;2024-03-08T12:39:21;24.57;;;17.70;;
1479;SDS011;732;51.698;4.886;2024-03-08T12:41:55;22.73;;;17.03;;
1479;SDS011;732;51.698;4.886;2024-03-08T12:44:26;25.90;;;16.10;;
1479;SDS011;732;51.698;4.886;2024-03-08T12:46:55;25.20;;;15.73;;
1479;SDS011;732;51.698;4.886;2024-03-08T12:49:26;23.50;;;16.80;;
1479;SDS011;732;51.698;4.886;2024-03-08T12:51:56;20.13;;;15.33;;
1479;SDS011;732;51.698;4.886;2024-03-08T12:54:25;18.20;;;13.63;;
1479;SDS011;732;51.698;4.886;2024-03-08T12:56:56;20.63;;;14.53;;
1479;SDS011;732;51.698;4.886;2024-03-08T12:59:25;17.90;;;13.30;;
1479;SDS011;732;51.698;4.886;2024-03-08T13:01:54;18.40;;;13.07;;
1479;SDS011;732;51.698;4.886;2024-03-08T13:04:26;19.80;;;14.03;;
1479;SDS011;732;51.698;4.886;2024-03-08T13:06:57;20.00;;;13.93;;
1479;SDS011;732;51.698;4.886;2024-03-08T13:09:28;19.40;;;14.23;;
1479;SDS011;732;51.698;4.886;2024-03-08T13:11:58;16.87;;;14.47;;
1479;SDS011;732;51.698;4.886;2024-03-08T13:14:28;23.40;;;13.67;;
1479;SDS011;732;51.698;4.886;2024-03-08T13:16:58;19.10;;;13.30;;
1479;SDS011;732;51.698;4.886;2024-03-08T13:19:27;19.10;;;13.63;;
1479;SDS011;732;51.698;4.886;2024-03-08T13:21:56;23.63;;;15.70;;
1479;SDS011;732;51.698;4.886;2024-03-08T13:24:24;20.27;;;15.20;;
1479;SDS011;732;51.698;4.886;2024-03-08T13:26:53;19.33;;;15.00;;
1479;SDS011;732;51.698;4.886;2024-03-08T13:29:23;17.63;;;14.23;;
1479;SDS011;732;51.698;4.886;2024-03-08T13:31:51;20.27;;;14.17;;
1479;SDS011;732;51.698;4.886;2024-03-08T13:34:23;20.70;;;13.70;;
1479;SDS011;732;51.698;4.886;2024-03-08T13:36:56;20.33;;;14.47;;
1479;SDS011;732;51.698;4.886;2024-03-08T13:39:27;20.67;;;14.83;;
1479;SDS011;732;51.698;4.886;2024-03-08T13:42:01;18.10;;;13.17;;
1479;SDS011;732;51.698;4.886;2024-03-08T13:44:37;20.20;;;13.40;;
1479;SDS011;732;51.698;4.886;2024-03-08T13:47:07;20.90;;;15.13;;
1479;SDS011;732;51.698;4.886;2024-03-08T13:49:36;18.33;;;13.33;;
1479;SDS011;732;51.698;4.886;2024-03-08T13:52:05;19.03;;;13.80;;
1479;SDS011;732;51.698;4.886;2024-03-08T13:54:36;18.67;;;13.83;;
1479;SDS011;732;51.698;4.886;2024-03-08T13:57:05;19.30;;;13.83;;
1479;SDS011;732;51.698;4.886;2024-03-08T13:59:33;18.33;;;13.60;;
1479;SDS011;732;51.698;4.886;2024-03-08T14:02:05;18.77;;;13.30;;
1479;SDS011;732;51.698;4.886;2024-03-08T14:04:39;17.17;;;12.70;;
1479;SDS011;732;51.698;4.886;2024-03-08T14:07:09;19.17;;;12.53;;
1479;SDS011;732;51.698;4.886;2024-03-08T14:09:38;17.03;;;12.57;;
1479;SDS011;732;51.698;4.886;2024-03-08T14:12:09;18.83;;;13.20;;
1479;SDS011;732;51.698;4.886;2024-03-08T14:14:40;20.00;;;13.77;;
1479;SDS011;732;51.698;4.886;2024-03-08T14:17:12;18.53;;;12.63;;
1479;SDS011;732;51.698;4.886;2024-03-08T14:19:44;16.37;;;13.20;;
1479;SDS011;732;51.698;4.886;2024-03-08T14:22:12;18.13;;;13.17;;
1479;SDS011;732;51.698;4.886;2024-03-08T14:24:42;21.27;;;13.20;;
1479;SDS011;732;51.698;4.886;2024-03-08T14:27:14;20.17;;;13.10;;
1479;SDS011;732;51.698;4.886;2024-03-08T14:29:45;15.87;;;11.80;;
1479;SDS011;732;51.698;4.886;2024-03-08T14:32:16;18.97;;;13.00;;
1479;SDS011;732;51.698;4.886;2024-03-08T14:34:46;15.77;;;12.07;;
1479;SDS011;732;51.698;4.886;2024-03-08T14:37:16;17.97;;;12.93;;
1479;SDS011;732;51.698;4.886;2024-03-08T14:39:50;16.00;;;11.50;;
1479;SDS011;732;51.698;4.886;2024-03-08T14:42:19;15.07;;;12.23;;
1479;SDS011;732;51.698;4.886;2024-03-08T14:44:48;18.60;;;13.27;;
1479;SDS011;732;51.698;4.886;2024-03-08T14:47:20;18.43;;;11.63;;
1479;SDS011;732;51.698;4.886;2024-03-08T14:49:49;14.50;;;11.97;;
1479;SDS011;732;51.698;4.886;2024-03-08T14:52:18;15.67;;;11.70;;
1479;SDS011;732;51.698;4.886;2024-03-08T14:54:56;17.60;;;12.00;;
1479;SDS011;732;51.698;4.886;2024-03-08T14:57:25;17.57;;;11.97;;
1479;SDS011;732;51.698;4.886;2024-03-08T14:59:53;14.67;;;10.83;;
1479;SDS011;732;51.698;4.886;2024-03-08T15:02:24;20.83;;;13.30;;
1479;SDS011;732;51.698;4.886;2024-03-08T15:04:53;24.70;;;17.50;;
1479;SDS011;732;51.698;4.886;2024-03-08T15:07:25;25.97;;;17.50;;
1479;SDS011;732;51.698;4.886;2024-03-08T15:09:56;26.73;;;18.80;;
1479;SDS011;732;51.698;4.886;2024-03-08T15:12:25;26.47;;;18.13;;
1479;SDS011;732;51.698;4.886;2024-03-08T15:14:55;26.17;;;18.90;;
1479;SDS011;732;51.698;4.886;2024-03-08T15:17:26;25.80;;;18.23;;
1479;SDS011;732;51.698;4.886;2024-03-08T15:19:54;26.33;;;18.70;;